sensor_id;sensor_type;location;lat;lon;timestamp;pressure;altitude;pressure_sealevel;temperature;humidity
48555;BME280;34336;48.270;16.716;2022-07-29T00:02:25;75124.09;;;18.16;55.00
48555;BME280;34336;48.270;16.716;2022-07-29T00:04:52;75122.16;;;18.16;54.74
48555;BME280;34336;48.270;16.716;2022-07-29T00:07:20;75131.81;;;18.16;56.89
48555;BME280;34336;48.270;16.716;2022-07-29T00:09:46;75141.44;;;18.16;56.51
48555;BME280;34336;48.270;16.716;2022-07-29T00:12:18;75129.88;;;18.16;54.29
48555;BME280;34336;48.270;16.716;2022-07-29T00:14:55;75135.66;;;18.16;56.67
48555;BME280;34336;48.270;16.716;2022-07-29T00:17:23;75141.44;;;18.16;57.10
48555;BME280;34336;48.270;16.716;2022-07-29T00:19:50;75151.06;;;18.16;55.90
48555;BME280;34336;48.270;16.716;2022-07-29T00:22:18;75149.13;;;18.16;55.16
48555;BME280;34336;48.270;16.716;2022-07-29T00:24:47;75141.44;;;18.16;54.86
48555;BME280;34336;48.270;16.716;2022-07-29T00:27:14;75149.13;;;18.16;56.72
48555;BME280;34336;48.270;16.716;2022-07-29T00:29:41;75156.84;;;18.16;57.53
48555;BME280;34336;48.270;16.716;2022-07-29T00:32:07;75164.53;;;18.16;57.29
48555;BME280;34336;48.270;16.716;2022-07-29T00:34:34;75168.41;;;18.16;56.27
48555;BME280;34336;48.270;16.716;2022-07-29T00:37:20;75172.25;;;18.16;56.32
48555;BME280;34336;48.270;16.716;2022-07-29T00:39:47;75170.31;;;18.16;57.89
48555;BME280;34336;48.270;16.716;2022-07-29T00:42:14;75172.25;;;18.16;58.14
48555;BME280;34336;48.270;16.716;2022-07-29T00:44:41;75183.81;;;18.16;59.62
48555;BME280;34336;48.270;16.716;2022-07-29T00:47:09;75191.50;;;18.16;58.20
48555;BME280;34336;48.270;16.716;2022-07-29T00:49:39;75197.28;;;18.16;58.34
48555;BME280;34336;48.270;16.716;2022-07-29T00:52:07;75206.91;;;18.16;58.65
48555;BME280;34336;48.270;16.716;2022-07-29T00:54:34;75206.91;;;18.16;57.29
48555;BME280;34336;48.270;16.716;2022-07-29T00:57:09;75206.91;;;18.16;59.10
48555;BME280;34336;48.270;16.716;2022-07-29T00:59:36;75222.34;;;18.16;59.65
48555;BME280;34336;48.270;16.716;2022-07-29T01:02:03;75222.34;;;18.16;59.92
48555;BME280;34336;48.270;16.716;2022-07-29T01:04:30;75230.03;;;18.16;60.03
48555;BME280;34336;48.270;16.716;2022-07-29T01:06:58;75226.19;;;18.16;58.96
48555;BME280;34336;48.270;16.716;2022-07-29T01:09:26;75233.88;;;18.16;58.94
48555;BME280;34336;48.270;16.716;2022-07-29T01:12:17;75228.13;;;18.16;57.93
48555;BME280;34336;48.270;16.716;2022-07-29T01:14:46;75226.19;;;18.16;58.09
48555;BME280;34336;48.270;16.716;2022-07-29T01:17:20;75239.66;;;18.16;58.38
48555;BME280;34336;48.270;16.716;2022-07-29T01:19:51;75243.53;;;18.16;58.57
48555;BME280;34336;48.270;16.716;2022-07-29T01:31:00;75260.84;;;18.16;59.03
48555;BME280;34336;48.270;16.716;2022-07-29T01:33:33;75249.31;;;18.16;59.45
48555;BME280;34336;48.270;16.716;2022-07-29T01:36:22;75257.00;;;18.16;59.25
48555;BME280;34336;48.270;16.716;2022-07-29T01:39:11;75268.56;;;18.16;59.12
48555;BME280;34336;48.270;16.716;2022-07-29T01:41:46;75270.50;;;18.16;59.86
48555;BME280;34336;48.270;16.716;2022-07-29T01:44:45;75276.28;;;18.16;59.54
48555;BME280;34336;48.270;16.716;2022-07-29T01:47:20;75291.69;;;18.16;59.24
48555;BME280;34336;48.270;16.716;2022-07-29T01:49:52;75283.97;;;18.16;59.46
48555;BME280;34336;48.270;16.716;2022-07-29T01:52:32;75283.97;;;18.16;59.92
48555;BME280;34336;48.270;16.716;2022-07-29T01:55:06;75283.97;;;18.16;60.12
48555;BME280;34336;48.270;16.716;2022-07-29T01:57:35;75287.81;;;18.16;60.30
48555;BME280;34336;48.270;16.716;2022-07-29T02:00:05;75287.81;;;18.16;61.45
48555;BME280;34336;48.270;16.716;2022-07-29T02:02:39;75289.75;;;18.16;61.32
48555;BME280;34336;48.270;16.716;2022-07-29T02:05:11;75291.69;;;18.16;61.26
48555;BME280;34336;48.270;16.716;2022-07-29T02:07:40;75297.47;;;18.16;61.38
48555;BME280;34336;48.270;16.716;2022-07-29T02:10:09;75299.38;;;18.16;61.27
48555;BME280;34336;48.270;16.716;2022-07-29T02:12:37;75310.94;;;18.16;61.49
48555;BME280;34336;48.270;16.716;2022-07-29T02:15:06;75291.69;;;18.16;61.32
48555;BME280;34336;48.270;16.716;2022-07-29T02:17:57;75299.38;;;18.16;61.43
48555;BME280;34336;48.270;16.716;2022-07-29T02:20:26;75301.31;;;18.16;61.73
48555;BME280;34336;48.270;16.716;2022-07-29T02:22:55;75301.31;;;18.16;61.79
48555;BME280;34336;48.270;16.716;2022-07-29T02:25:24;75297.47;;;18.16;61.89
48555;BME280;34336;48.270;16.716;2022-07-29T02:28:05;75291.69;;;18.16;62.13
48555;BME280;34336;48.270;16.716;2022-07-29T02:30:35;75291.69;;;18.16;62.43
48555;BME280;34336;48.270;16.716;2022-07-29T02:33:03;75303.25;;;18.16;62.84
48555;BME280;34336;48.270;16.716;2022-07-29T02:35:31;75310.94;;;18.16;62.93
48555;BME280;34336;48.270;16.716;2022-07-29T02:38:01;75318.66;;;18.16;62.68
48555;BME280;34336;48.270;16.716;2022-07-29T02:40:48;75326.34;;;18.16;64.19
48555;BME280;34336;48.270;16.716;2022-07-29T02:43:17;75337.91;;;18.16;64.59
48555;BME280;34336;48.270;16.716;2022-07-29T02:45:47;75351.41;;;18.16;64.63
48555;BME280;34336;48.270;16.716;2022-07-29T02:48:18;75355.25;;;18.16;64.15
48555;BME280;34336;48.270;16.716;2022-07-29T02:50:51;75353.31;;;18.16;63.69
48555;BME280;34336;48.270;16.716;2022-07-29T02:53:23;75357.16;;;18.16;63.88
48555;BME280;34336;48.270;16.716;2022-07-29T02:55:56;75362.94;;;18.16;64.14
48555;BME280;34336;48.270;16.716;2022-07-29T02:58:34;75364.88;;;18.16;64.49
48555;BME280;34336;48.270;16.716;2022-07-29T03:01:14;75368.72;;;18.16;65.12
48555;BME280;34336;48.270;16.716;2022-07-29T03:03:49;75388.00;;;18.16;65.70
48555;BME280;34336;48.270;16.716;2022-07-29T03:06:17;75384.13;;;18.16;65.51
48555;BME280;34336;48.270;16.716;2022-07-29T03:09:06;75388.00;;;18.16;65.44
48555;BME280;34336;48.270;16.716;2022-07-29T03:11:40;75391.84;;;18.16;66.22
48555;BME280;34336;48.270;16.716;2022-07-29T03:14:17;75395.69;;;18.16;66.43
48555;BME280;34336;48.270;16.716;2022-07-29T03:16:46;75395.69;;;18.16;66.38
48555;BME280;34336;48.270;16.716;2022-07-29T03:19:13;75388.00;;;18.16;66.47
48555;BME280;34336;48.270;16.716;2022-07-29T03:21:40;75388.00;;;18.16;66.40
48555;BME280;34336;48.270;16.716;2022-07-29T03:24:07;75388.00;;;18.16;66.53
48555;BME280;34336;48.270;16.716;2022-07-29T03:26:36;75391.84;;;18.16;66.88
48555;BME280;34336;48.270;16.716;2022-07-29T03:29:03;75391.84;;;18.16;66.97
48555;BME280;34336;48.270;16.716;2022-07-29T03:31:30;75389.91;;;18.16;67.00
48555;BME280;34336;48.270;16.716;2022-07-29T03:33:59;75393.78;;;18.16;67.04
48555;BME280;34336;48.270;16.716;2022-07-29T03:36:26;75391.84;;;18.16;67.04
48555;BME280;34336;48.270;16.716;2022-07-29T03:38:52;75382.22;;;18.16;66.66
48555;BME280;34336;48.270;16.716;2022-07-29T03:41:22;75372.59;;;18.16;66.90
48555;BME280;34336;48.270;16.716;2022-07-29T03:43:49;75361.03;;;18.16;66.67
48555;BME280;34336;48.270;16.716;2022-07-29T03:46:20;75337.91;;;18.16;66.29
48555;BME280;34336;48.270;16.716;2022-07-29T03:48:52;75318.66;;;18.16;65.17
48555;BME280;34336;48.270;16.716;2022-07-29T03:51:23;75280.13;;;18.16;63.91
48555;BME280;34336;48.270;16.716;2022-07-29T03:54:01;75245.44;;;18.16;62.92
48555;BME280;34336;48.270;16.716;2022-07-29T03:56:38;75206.91;;;18.16;61.63
48555;BME280;34336;48.270;16.716;2022-07-29T03:59:06;75149.13;;;18.16;60.50
48555;BME280;34336;48.270;16.716;2022-07-29T04:01:34;75079.78;;;18.16;57.75
48555;BME280;34336;48.270;16.716;2022-07-29T04:04:02;75052.81;;;18.16;56.31
48555;BME280;34336;48.270;16.716;2022-07-29T04:06:41;75074.00;;;18.16;56.49
48555;BME280;34336;48.270;16.716;2022-07-29T04:09:13;75091.34;;;18.16;57.13
48555;BME280;34336;48.270;16.716;2022-07-29T04:11:41;75093.28;;;18.16;57.54
48555;BME280;34336;48.270;16.716;2022-07-29T04:14:28;75022.00;;;18.16;57.14
48555;BME280;34336;48.270;16.716;2022-07-29T04:16:55;74829.41;;;18.16;52.86
48555;BME280;34336;48.270;16.716;2022-07-29T04:19:21;74706.13;;;18.16;49.96
48555;BME280;34336;48.270;16.716;2022-07-29T04:21:49;74582.88;;;18.16;47.71
48555;BME280;34336;48.270;16.716;2022-07-29T04:24:15;74357.56;;;18.16;44.65
48555;BME280;34336;48.270;16.716;2022-07-29T04:26:45;74297.84;;;18.16;43.27
48555;BME280;34336;48.270;16.716;2022-07-29T04:29:12;74163.06;;;18.16;42.44
48555;BME280;34336;48.270;16.716;2022-07-29T04:31:41;74039.81;;;18.16;39.84
48555;BME280;34336;48.270;16.716;2022-07-29T04:34:09;73935.84;;;18.16;39.72
48555;BME280;34336;48.270;16.716;2022-07-29T04:36:36;73953.16;;;18.16;39.50
48555;BME280;34336;48.270;16.716;2022-07-29T04:39:03;73991.66;;;18.16;40.34
48555;BME280;34336;48.270;16.716;2022-07-29T04:41:30;73920.44;;;18.16;39.05
48555;BME280;34336;48.270;16.716;2022-07-29T04:43:59;73901.16;;;18.16;38.69
48555;BME280;34336;48.270;16.716;2022-07-29T04:46:33;73785.63;;;18.16;37.07
48555;BME280;34336;48.270;16.716;2022-07-29T04:49:00;73758.69;;;18.16;36.31
48555;BME280;34336;48.270;16.716;2022-07-29T04:51:27;73546.88;;;18.16;34.44
48555;BME280;34336;48.270;16.716;2022-07-29T04:53:54;73385.16;;;18.16;32.85
48555;BME280;34336;48.270;16.716;2022-07-29T04:56:21;73481.44;;;18.16;33.61
48555;BME280;34336;48.270;16.716;2022-07-29T04:58:48;73502.59;;;18.16;33.50
48555;BME280;34336;48.270;16.716;2022-07-29T05:01:15;73616.19;;;18.16;33.94
48555;BME280;34336;48.270;16.716;2022-07-29T05:03:41;73439.06;;;18.16;32.49
48555;BME280;34336;48.270;16.716;2022-07-29T05:06:08;73402.50;;;18.16;32.21
48555;BME280;34336;48.270;16.716;2022-07-29T05:08:35;73238.84;;;18.16;30.17
48555;BME280;34336;48.270;16.716;2022-07-29T05:11:02;73265.81;;;18.16;30.63
48555;BME280;34336;48.270;16.716;2022-07-29T05:13:38;73188.81;;;18.16;30.17
48555;BME280;34336;48.270;16.716;2022-07-29T05:16:12;73235.00;;;18.16;30.60
48555;BME280;34336;48.270;16.716;2022-07-29T05:18:40;72982.81;;;18.16;28.77
48555;BME280;34336;48.270;16.716;2022-07-29T05:21:07;72930.84;;;18.16;28.47
48555;BME280;34336;48.270;16.716;2022-07-29T05:23:34;72938.53;;;18.16;28.45
48555;BME280;34336;48.270;16.716;2022-07-29T05:26:00;72934.69;;;18.16;27.98
48555;BME280;34336;48.270;16.716;2022-07-29T05:28:27;72892.34;;;18.16;28.12
48555;BME280;34336;48.270;16.716;2022-07-29T05:30:54;73030.94;;;18.16;28.56
48555;BME280;34336;48.270;16.716;2022-07-29T05:33:21;72961.66;;;18.16;28.36
48555;BME280;34336;48.270;16.716;2022-07-29T05:36:05;72788.41;;;18.16;26.91
48555;BME280;34336;48.270;16.716;2022-07-29T05:38:35;72790.31;;;18.16;26.68
48555;BME280;34336;48.270;16.716;2022-07-29T05:41:04;72934.69;;;18.16;27.63
48555;BME280;34336;48.270;16.716;2022-07-29T05:43:31;72696.00;;;18.16;26.44
48555;BME280;34336;48.270;16.716;2022-07-29T05:45:58;72665.22;;;18.16;25.85
48555;BME280;34336;48.270;16.716;2022-07-29T05:48:25;72626.72;;;18.16;25.57
48555;BME280;34336;48.270;16.716;2022-07-29T05:50:52;72757.59;;;18.16;26.48
48555;BME280;34336;48.270;16.716;2022-07-29T05:53:19;72799.94;;;18.16;26.98
48555;BME280;34336;48.270;16.716;2022-07-29T05:55:47;73017.47;;;18.16;28.52
48555;BME280;34336;48.270;16.716;2022-07-29T05:58:14;72780.69;;;18.16;27.13
48555;BME280;34336;48.270;16.716;2022-07-29T06:00:41;72719.09;;;18.16;26.54
48555;BME280;34336;48.270;16.716;2022-07-29T06:03:08;73004.00;;;18.16;28.18
48555;BME280;34336;48.270;16.716;2022-07-29T06:05:35;72826.91;;;18.16;27.25
48555;BME280;34336;48.270;16.716;2022-07-29T06:08:02;72903.91;;;18.16;27.40
48555;BME280;34336;48.270;16.716;2022-07-29T06:10:28;72669.06;;;18.16;25.93
48555;BME280;34336;48.270;16.716;2022-07-29T06:12:55;72911.59;;;18.16;27.70
48555;BME280;34336;48.270;16.716;2022-07-29T06:15:23;72786.47;;;18.16;27.07
48555;BME280;34336;48.270;16.716;2022-07-29T06:17:50;72761.44;;;18.16;26.77
48555;BME280;34336;48.270;16.716;2022-07-29T06:20:29;72659.44;;;18.16;25.92
48555;BME280;34336;48.270;16.716;2022-07-29T06:23:00;72609.38;;;18.16;25.60
48555;BME280;34336;48.270;16.716;2022-07-29T06:25:28;72857.69;;;18.16;27.28
48555;BME280;34336;48.270;16.716;2022-07-29T06:28:01;72715.25;;;18.16;26.38
48555;BME280;34336;48.270;16.716;2022-07-29T06:30:27;72715.25;;;18.16;26.41
48555;BME280;34336;48.270;16.716;2022-07-29T06:32:55;72555.50;;;18.16;25.88
48555;BME280;34336;48.270;16.716;2022-07-29T06:35:22;72557.41;;;18.16;25.86
48555;BME280;34336;48.270;16.716;2022-07-29T06:38:08;72515.06;;;18.16;25.30
48555;BME280;34336;48.270;16.716;2022-07-29T06:40:54;72476.59;;;18.16;25.13
48555;BME280;34336;48.270;16.716;2022-07-29T06:43:36;72696.00;;;18.16;26.32
48555;BME280;34336;48.270;16.716;2022-07-29T06:46:19;72595.91;;;18.16;25.90
48555;BME280;34336;48.270;16.716;2022-07-29T06:48:46;72478.50;;;18.16;25.26
48555;BME280;34336;48.270;16.716;2022-07-29T06:51:14;72470.81;;;18.16;25.12
48555;BME280;34336;48.270;16.716;2022-07-29T06:53:42;72653.66;;;18.16;26.13
48555;BME280;34336;48.270;16.716;2022-07-29T06:56:32;72657.50;;;18.16;26.44
48555;BME280;34336;48.270;16.716;2022-07-29T06:59:05;72715.25;;;18.16;25.90
48555;BME280;34336;48.270;16.716;2022-07-29T07:01:32;72645.97;;;18.16;26.69
48555;BME280;34336;48.270;16.716;2022-07-29T07:03:58;72807.66;;;18.16;27.34
48555;BME280;34336;48.270;16.716;2022-07-29T07:06:25;72977.03;;;18.16;28.88
48555;BME280;34336;48.270;16.716;2022-07-29T07:08:52;72878.88;;;18.16;28.38
48555;BME280;34336;48.270;16.716;2022-07-29T07:11:19;72911.59;;;18.16;28.07
48555;BME280;34336;48.270;16.716;2022-07-29T07:13:46;72805.72;;;18.16;27.04
48555;BME280;34336;48.270;16.716;2022-07-29T07:16:13;72676.75;;;18.16;27.05
48555;BME280;34336;48.270;16.716;2022-07-29T07:18:40;72894.28;;;18.16;27.27
48555;BME280;34336;48.270;16.716;2022-07-29T07:21:06;72988.59;;;18.16;28.58
48555;BME280;34336;48.270;16.716;2022-07-29T07:23:34;73088.69;;;18.16;29.65
48555;BME280;34336;48.270;16.716;2022-07-29T07:26:01;73142.59;;;18.16;30.02
48555;BME280;34336;48.270;16.716;2022-07-29T07:28:29;73131.03;;;18.16;29.28
48555;BME280;34336;48.270;16.716;2022-07-29T07:30:56;73312.00;;;18.16;30.01
48555;BME280;34336;48.270;16.716;2022-07-29T07:33:22;73435.22;;;18.16;31.07
48555;BME280;34336;48.270;16.716;2022-07-29T07:35:49;73529.56;;;18.16;33.61
48555;BME280;34336;48.270;16.716;2022-07-29T07:38:16;73558.44;;;18.16;33.66
48555;BME280;34336;48.270;16.716;2022-07-29T07:40:43;73558.44;;;18.16;33.25
48555;BME280;34336;48.270;16.716;2022-07-29T07:43:10;73620.06;;;18.16;34.07
48555;BME280;34336;48.270;16.716;2022-07-29T07:45:37;73587.31;;;18.16;33.47
48555;BME280;34336;48.270;16.716;2022-07-29T07:48:05;73531.50;;;18.16;33.98
48555;BME280;34336;48.270;16.716;2022-07-29T07:50:32;73566.16;;;18.16;33.52
48555;BME280;34336;48.270;16.716;2022-07-29T07:52:59;73589.25;;;18.16;34.38
48555;BME280;34336;48.270;16.716;2022-07-29T07:55:28;73627.75;;;18.16;34.79
48555;BME280;34336;48.270;16.716;2022-07-29T07:58:15;73849.19;;;18.16;36.13
48555;BME280;34336;48.270;16.716;2022-07-29T08:00:42;73831.84;;;18.16;36.54
48555;BME280;34336;48.270;16.716;2022-07-29T08:03:09;73920.44;;;18.16;37.17
48555;BME280;34336;48.270;16.716;2022-07-29T08:05:43;73822.22;;;18.16;36.46
48555;BME280;34336;48.270;16.716;2022-07-29T08:08:10;73851.09;;;18.16;37.17
48555;BME280;34336;48.270;16.716;2022-07-29T08:10:36;73851.09;;;18.16;36.86
48555;BME280;34336;48.270;16.716;2022-07-29T08:13:20;73789.50;;;18.16;36.67
48555;BME280;34336;48.270;16.716;2022-07-29T08:15:47;73745.22;;;18.16;36.69
48555;BME280;34336;48.270;16.716;2022-07-29T08:18:24;73716.31;;;18.16;36.49
48555;BME280;34336;48.270;16.716;2022-07-29T08:20:52;73716.31;;;18.16;35.91
48555;BME280;34336;48.270;16.716;2022-07-29T08:23:19;73695.16;;;18.16;35.51
48555;BME280;34336;48.270;16.716;2022-07-29T08:25:46;73693.22;;;18.16;35.87
48555;BME280;34336;48.270;16.716;2022-07-29T08:28:16;73677.81;;;18.16;35.40
48555;BME280;34336;48.270;16.716;2022-07-29T08:30:43;73704.78;;;18.16;36.01
48555;BME280;34336;48.270;16.716;2022-07-29T08:33:10;73843.41;;;18.16;37.04
48555;BME280;34336;48.270;16.716;2022-07-29T08:35:38;73816.44;;;18.16;37.41
48555;BME280;34336;48.270;16.716;2022-07-29T08:38:05;73922.34;;;18.16;38.04
48555;BME280;34336;48.270;16.716;2022-07-29T08:40:32;73866.50;;;18.16;37.54
48555;BME280;34336;48.270;16.716;2022-07-29T08:43:06;73770.25;;;18.16;36.83
48555;BME280;34336;48.270;16.716;2022-07-29T08:48:13;73672.03;;;18.16;35.30
48555;BME280;34336;48.270;16.716;2022-07-29T08:50:41;73700.91;;;18.16;35.53
48555;BME280;34336;48.270;16.716;2022-07-29T08:53:13;73704.78;;;18.16;35.03
48555;BME280;34336;48.270;16.716;2022-07-29T08:55:50;73660.50;;;18.16;34.40
48555;BME280;34336;48.270;16.716;2022-07-29T08:58:17;73641.22;;;18.16;35.30
48555;BME280;34336;48.270;16.716;2022-07-29T09:00:55;73666.25;;;18.16;35.46
48555;BME280;34336;48.270;16.716;2022-07-29T09:03:25;73581.56;;;18.16;35.35
48555;BME280;34336;48.270;16.716;2022-07-29T09:05:53;73560.38;;;18.16;33.97
48555;BME280;34336;48.270;16.716;2022-07-29T09:08:20;73577.69;;;18.16;33.71
48555;BME280;34336;48.270;16.716;2022-07-29T09:10:50;73625.84;;;18.16;34.53
48555;BME280;34336;48.270;16.716;2022-07-29T09:13:18;73629.69;;;18.16;34.45
48555;BME280;34336;48.270;16.716;2022-07-29T09:15:44;73623.91;;;18.16;34.64
48555;BME280;34336;48.270;16.716;2022-07-29T09:18:37;73693.22;;;18.16;35.21
48555;BME280;34336;48.270;16.716;2022-07-29T09:21:07;73702.84;;;18.16;34.77
48555;BME280;34336;48.270;16.716;2022-07-29T09:24:12;73662.41;;;18.16;34.53
48555;BME280;34336;48.270;16.716;2022-07-29T09:26:41;73602.72;;;18.16;34.16
48555;BME280;34336;48.270;16.716;2022-07-29T09:29:14;73571.91;;;18.16;33.78
48555;BME280;34336;48.270;16.716;2022-07-29T09:31:46;73546.88;;;18.16;33.92
48555;BME280;34336;48.270;16.716;2022-07-29T09:34:15;73679.75;;;18.16;35.36
48555;BME280;34336;48.270;16.716;2022-07-29T09:36:44;73612.34;;;18.16;34.35
48555;BME280;34336;48.270;16.716;2022-07-29T09:39:12;73604.66;;;18.16;35.12
48555;BME280;34336;48.270;16.716;2022-07-29T09:41:50;73641.22;;;18.16;34.85
48555;BME280;34336;48.270;16.716;2022-07-29T09:44:20;73631.59;;;18.16;34.38
48555;BME280;34336;48.270;16.716;2022-07-29T09:49:24;73550.75;;;18.16;34.21
48555;BME280;34336;48.270;16.716;2022-07-29T09:52:06;73535.34;;;18.16;34.67
48555;BME280;34336;48.270;16.716;2022-07-29T09:54:34;73508.38;;;18.16;33.32
48555;BME280;34336;48.270;16.716;2022-07-29T09:57:09;73587.31;;;18.16;34.41
48555;BME280;34336;48.270;16.716;2022-07-29T10:00:08;73608.50;;;18.16;34.72
48555;BME280;34336;48.270;16.716;2022-07-29T10:02:40;73600.81;;;18.16;35.17
48555;BME280;34336;48.270;16.716;2022-07-29T10:05:26;73548.81;;;18.16;34.20
48555;BME280;34336;48.270;16.716;2022-07-29T10:08:02;73539.19;;;18.16;35.16
48555;BME280;34336;48.270;16.716;2022-07-29T10:10:34;73427.53;;;18.16;32.89
48555;BME280;34336;48.270;16.716;2022-07-29T10:13:10;73412.13;;;18.16;31.92
48555;BME280;34336;48.270;16.716;2022-07-29T10:15:44;73331.25;;;18.16;31.95
48555;BME280;34336;48.270;16.716;2022-07-29T10:18:13;73441.00;;;18.16;33.87
48555;BME280;34336;48.270;16.716;2022-07-29T10:20:41;73319.72;;;18.16;32.76
48555;BME280;34336;48.270;16.716;2022-07-29T10:23:09;73292.75;;;18.16;32.47
48555;BME280;34336;48.270;16.716;2022-07-29T10:25:36;73327.41;;;18.16;33.00
48555;BME280;34336;48.270;16.716;2022-07-29T10:28:05;73348.59;;;18.16;32.66
48555;BME280;34336;48.270;16.716;2022-07-29T10:30:32;73456.41;;;18.16;33.34
48555;BME280;34336;48.270;16.716;2022-07-29T10:36:19;73412.13;;;18.16;32.77
48555;BME280;34336;48.270;16.716;2022-07-29T10:41:55;73414.03;;;18.16;32.90
48555;BME280;34336;48.270;16.716;2022-07-29T10:44:24;73439.06;;;18.16;32.53
48555;BME280;34336;48.270;16.716;2022-07-29T10:46:52;73473.72;;;18.16;32.97
48555;BME280;34336;48.270;16.716;2022-07-29T10:49:21;73466.03;;;18.16;32.77
48555;BME280;34336;48.270;16.716;2022-07-29T10:52:08;73485.28;;;18.16;32.37
48555;BME280;34336;48.270;16.716;2022-07-29T10:59:38;73466.03;;;18.16;32.32
48555;BME280;34336;48.270;16.716;2022-07-29T11:05:13;73439.06;;;18.16;32.99
48555;BME280;34336;48.270;16.716;2022-07-29T11:10:47;73442.94;;;18.16;33.75
48555;BME280;34336;48.270;16.716;2022-07-29T11:16:09;73467.97;;;18.16;34.08
48555;BME280;34336;48.270;16.716;2022-07-29T11:21:40;73454.47;;;18.16;34.03
48555;BME280;34336;48.270;16.716;2022-07-29T11:24:28;73475.66;;;18.16;33.37
48555;BME280;34336;48.270;16.716;2022-07-29T11:29:56;73441.00;;;18.16;32.92
48555;BME280;34336;48.270;16.716;2022-07-29T11:32:25;73489.13;;;18.16;33.18
48555;BME280;34336;48.270;16.716;2022-07-29T11:37:45;73439.06;;;18.16;32.50
48555;BME280;34336;48.270;16.716;2022-07-29T11:40:21;73423.69;;;18.16;32.79
48555;BME280;34336;48.270;16.716;2022-07-29T11:42:49;73398.66;;;18.16;32.00
48555;BME280;34336;48.270;16.716;2022-07-29T11:45:22;73423.69;;;18.16;32.81
48555;BME280;34336;48.270;16.716;2022-07-29T11:48:15;73433.31;;;18.16;33.19
48555;BME280;34336;48.270;16.716;2022-07-29T11:50:58;73437.16;;;18.16;32.66
48555;BME280;34336;48.270;16.716;2022-07-29T11:53:25;73448.69;;;18.16;33.58
48555;BME280;34336;48.270;16.716;2022-07-29T11:55:58;73392.88;;;18.16;32.05
48555;BME280;34336;48.270;16.716;2022-07-29T11:58:25;73360.13;;;18.16;31.88
48555;BME280;34336;48.270;16.716;2022-07-29T12:00:54;73342.81;;;18.16;32.29
48555;BME280;34336;48.270;16.716;2022-07-29T12:03:26;73342.81;;;18.16;32.65
48555;BME280;34336;48.270;16.716;2022-07-29T12:06:01;73335.13;;;18.16;31.28
48555;BME280;34336;48.270;16.716;2022-07-29T12:08:29;73335.13;;;18.16;31.07
48555;BME280;34336;48.270;16.716;2022-07-29T12:10:56;73315.84;;;18.16;32.02
48555;BME280;34336;48.270;16.716;2022-07-29T12:13:23;73335.13;;;18.16;31.91
48555;BME280;34336;48.270;16.716;2022-07-29T12:16:02;73398.66;;;18.16;31.40
48555;BME280;34336;48.270;16.716;2022-07-29T12:18:29;73350.50;;;18.16;31.49
48555;BME280;34336;48.270;16.716;2022-07-29T12:20:58;73279.28;;;18.16;30.80
48555;BME280;34336;48.270;16.716;2022-07-29T12:23:30;73231.16;;;18.16;31.99
48555;BME280;34336;48.270;16.716;2022-07-29T12:26:04;73246.56;;;18.16;31.02
48555;BME280;34336;48.270;16.716;2022-07-29T12:28:37;73146.44;;;18.16;31.96
48555;BME280;34336;48.270;16.716;2022-07-29T12:31:05;73192.66;;;18.16;30.48
48555;BME280;34336;48.270;16.716;2022-07-29T12:33:33;73219.59;;;18.16;30.50
48555;BME280;34336;48.270;16.716;2022-07-29T12:36:02;73273.50;;;18.16;30.74
48555;BME280;34336;48.270;16.716;2022-07-29T12:38:40;73231.16;;;18.16;31.76
48555;BME280;34336;48.270;16.716;2022-07-29T12:41:07;73292.75;;;18.16;31.79
48555;BME280;34336;48.270;16.716;2022-07-29T12:43:33;73235.00;;;18.16;31.33
48555;BME280;34336;48.270;16.716;2022-07-29T12:46:12;73184.94;;;18.16;30.47
48555;BME280;34336;48.270;16.716;2022-07-29T12:48:41;73165.69;;;18.16;30.80
48555;BME280;34336;48.270;16.716;2022-07-29T12:51:10;73119.50;;;18.16;30.24
48555;BME280;34336;48.270;16.716;2022-07-29T12:53:38;73104.09;;;18.16;30.56
48555;BME280;34336;48.270;16.716;2022-07-29T12:56:05;73150.28;;;18.16;30.34
48555;BME280;34336;48.270;16.716;2022-07-29T12:58:52;73208.06;;;18.16;30.04
48555;BME280;34336;48.270;16.716;2022-07-29T13:01:20;73148.38;;;18.16;30.03
48555;BME280;34336;48.270;16.716;2022-07-29T13:12:10;73104.09;;;18.16;29.22
48555;BME280;34336;48.270;16.716;2022-07-29T13:14:39;73202.28;;;18.16;30.36
48555;BME280;34336;48.270;16.716;2022-07-29T13:19:52;73273.50;;;18.16;31.23
48555;BME280;34336;48.270;16.716;2022-07-29T13:22:21;73350.50;;;18.16;31.63
48555;BME280;34336;48.270;16.716;2022-07-29T13:27:18;73377.47;;;18.16;31.99
48555;BME280;34336;48.270;16.716;2022-07-29T13:29:45;73342.81;;;18.16;31.03
48555;BME280;34336;48.270;16.716;2022-07-29T13:32:12;73346.66;;;18.16;31.97
48555;BME280;34336;48.270;16.716;2022-07-29T13:34:39;73315.84;;;18.16;32.48
48555;BME280;34336;48.270;16.716;2022-07-29T13:37:07;73273.50;;;18.16;31.50
48555;BME280;34336;48.270;16.716;2022-07-29T13:39:34;73333.19;;;18.16;32.24
48555;BME280;34336;48.270;16.716;2022-07-29T13:42:00;73385.16;;;18.16;32.42
48555;BME280;34336;48.270;16.716;2022-07-29T13:44:27;73362.06;;;18.16;32.66
48555;BME280;34336;48.270;16.716;2022-07-29T13:46:54;73389.03;;;18.16;32.95
48555;BME280;34336;48.270;16.716;2022-07-29T13:49:23;73412.13;;;18.16;32.76
48555;BME280;34336;48.270;16.716;2022-07-29T13:51:50;73390.94;;;18.16;32.25
48555;BME280;34336;48.270;16.716;2022-07-29T13:54:16;73427.53;;;18.16;32.68
48555;BME280;34336;48.270;16.716;2022-07-29T13:56:43;73406.34;;;18.16;32.55
48555;BME280;34336;48.270;16.716;2022-07-29T13:59:12;73419.81;;;18.16;32.98
48555;BME280;34336;48.270;16.716;2022-07-29T14:01:39;73442.94;;;18.16;33.69
48555;BME280;34336;48.270;16.716;2022-07-29T14:04:09;73435.22;;;18.16;33.70
48555;BME280;34336;48.270;16.716;2022-07-29T14:06:37;73431.38;;;18.16;33.53